sensor_id;sensor_type;location;lat;lon;timestamp;temperature;humidity
42141;DHT22;27809;51.864;5.646;2022-12-20T00:01:17;9.30;99.90
42141;DHT22;27809;51.864;5.646;2022-12-20T00:03:44;9.40;99.90
42141;DHT22;27809;51.864;5.646;2022-12-20T00:06:11;9.50;99.90
42141;DHT22;27809;51.864;5.646;2022-12-20T00:08:37;9.40;99.90
42141;DHT22;27809;51.864;5.646;2022-12-20T00:11:04;9.40;99.90
42141;DHT22;27809;51.864;5.646;2022-12-20T00:13:31;9.20;99.90
42141;DHT22;27809;51.864;5.646;2022-12-20T00:16:17;9.20;99.90
42141;DHT22;27809;51.864;5.646;2022-12-20T00:18:43;9.50;99.90
42141;DHT22;27809;51.864;5.646;2022-12-20T00:21:11;9.40;99.90
42141;DHT22;27809;51.864;5.646;2022-12-20T00:23:38;9.30;99.90
42141;DHT22;27809;51.864;5.646;2022-12-20T00:26:07;9.60;99.90
42141;DHT22;27809;51.864;5.646;2022-12-20T00:28:35;9.70;99.90
42141;DHT22;27809;51.864;5.646;2022-12-20T00:31:02;9.60;99.90
42141;DHT22;27809;51.864;5.646;2022-12-20T00:33:28;9.70;99.90
42141;DHT22;27809;51.864;5.646;2022-12-20T00:35:54;9.90;99.90
42141;DHT22;27809;51.864;5.646;2022-12-20T00:38:21;10.00;99.90
42141;DHT22;27809;51.864;5.646;2022-12-20T00:40:47;10.20;99.90
42141;DHT22;27809;51.864;5.646;2022-12-20T00:43:22;10.20;99.90
42141;DHT22;27809;51.864;5.646;2022-12-20T00:45:48;10.10;99.90
42141;DHT22;27809;51.864;5.646;2022-12-20T00:48:13;10.20;99.90
42141;DHT22;27809;51.864;5.646;2022-12-20T00:50:39;10.20;99.90
42141;DHT22;27809;51.864;5.646;2022-12-20T00:53:04;10.30;99.90
42141;DHT22;27809;51.864;5.646;2022-12-20T00:55:34;10.30;99.90
42141;DHT22;27809;51.864;5.646;2022-12-20T00:57:59;10.40;99.90
42141;DHT22;27809;51.864;5.646;2022-12-20T01:00:25;10.60;99.90
42141;DHT22;27809;51.864;5.646;2022-12-20T01:02:50;10.40;99.90
42141;DHT22;27809;51.864;5.646;2022-12-20T01:05:16;10.20;99.90
42141;DHT22;27809;51.864;5.646;2022-12-20T01:07:41;10.40;99.90
42141;DHT22;27809;51.864;5.646;2022-12-20T01:10:07;10.30;99.90
42141;DHT22;27809;51.864;5.646;2022-12-20T01:12:33;10.30;99.90
42141;DHT22;27809;51.864;5.646;2022-12-20T01:14:58;10.20;99.90
42141;DHT22;27809;51.864;5.646;2022-12-20T01:17:24;10.20;99.90
42141;DHT22;27809;51.864;5.646;2022-12-20T01:19:49;10.00;99.90
42141;DHT22;27809;51.864;5.646;2022-12-20T01:22:15;10.20;99.90
42141;DHT22;27809;51.864;5.646;2022-12-20T01:24:40;10.30;99.90
42141;DHT22;27809;51.864;5.646;2022-12-20T01:27:06;10.20;99.90
42141;DHT22;27809;51.864;5.646;2022-12-20T01:29:31;10.20;99.90
42141;DHT22;27809;51.864;5.646;2022-12-20T01:31:57;10.30;99.90
42141;DHT22;27809;51.864;5.646;2022-12-20T01:34:22;10.30;99.90
42141;DHT22;27809;51.864;5.646;2022-12-20T01:36:48;10.10;99.90
42141;DHT22;27809;51.864;5.646;2022-12-20T01:39:15;10.00;99.90
42141;DHT22;27809;51.864;5.646;2022-12-20T01:41:43;9.80;99.90
42141;DHT22;27809;51.864;5.646;2022-12-20T01:46:48;9.60;99.90
42141;DHT22;27809;51.864;5.646;2022-12-20T01:49:34;9.60;99.90
42141;DHT22;27809;51.864;5.646;2022-12-20T01:52:07;9.60;99.90
42141;DHT22;27809;51.864;5.646;2022-12-20T01:57:10;9.40;99.90
42141;DHT22;27809;51.864;5.646;2022-12-20T01:59:39;9.30;99.90
42141;DHT22;27809;51.864;5.646;2022-12-20T02:02:08;9.40;99.90
42141;DHT22;27809;51.864;5.646;2022-12-20T02:04:35;9.40;99.90
42141;DHT22;27809;51.864;5.646;2022-12-20T02:07:02;9.40;99.90
42141;DHT22;27809;51.864;5.646;2022-12-20T02:09:29;9.40;99.90
42141;DHT22;27809;51.864;5.646;2022-12-20T02:12:26;9.40;99.90
42141;DHT22;27809;51.864;5.646;2022-12-20T02:17:43;9.40;99.90
42141;DHT22;27809;51.864;5.646;2022-12-20T02:31:11;9.30;99.90
42141;DHT22;27809;51.864;5.646;2022-12-20T02:33:41;9.40;99.90
42141;DHT22;27809;51.864;5.646;2022-12-20T02:36:07;9.40;99.90
42141;DHT22;27809;51.864;5.646;2022-12-20T02:38:35;9.30;99.90
42141;DHT22;27809;51.864;5.646;2022-12-20T02:41:08;9.30;99.90
42141;DHT22;27809;51.864;5.646;2022-12-20T02:43:37;9.40;99.90
42141;DHT22;27809;51.864;5.646;2022-12-20T02:46:23;9.40;99.90
42141;DHT22;27809;51.864;5.646;2022-12-20T02:48:50;9.30;99.90
42141;DHT22;27809;51.864;5.646;2022-12-20T02:51:19;9.20;99.90
42141;DHT22;27809;51.864;5.646;2022-12-20T02:53:46;9.30;99.90
42141;DHT22;27809;51.864;5.646;2022-12-20T02:56:31;9.30;99.90
42141;DHT22;27809;51.864;5.646;2022-12-20T02:59:10;9.30;99.90
42141;DHT22;27809;51.864;5.646;2022-12-20T03:01:40;9.40;99.90
42141;DHT22;27809;51.864;5.646;2022-12-20T03:04:09;9.20;99.90
42141;DHT22;27809;51.864;5.646;2022-12-20T03:06:35;9.20;99.90
42141;DHT22;27809;51.864;5.646;2022-12-20T03:09:01;9.30;99.90
42141;DHT22;27809;51.864;5.646;2022-12-20T03:11:27;9.20;99.90
42141;DHT22;27809;51.864;5.646;2022-12-20T03:13:52;9.20;99.90
42141;DHT22;27809;51.864;5.646;2022-12-20T03:16:18;9.30;99.90
42141;DHT22;27809;51.864;5.646;2022-12-20T03:18:43;9.20;99.90
42141;DHT22;27809;51.864;5.646;2022-12-20T03:21:10;9.10;99.90
42141;DHT22;27809;51.864;5.646;2022-12-20T03:23:36;9.20;99.90
42141;DHT22;27809;51.864;5.646;2022-12-20T03:26:02;9.10;99.90
42141;DHT22;27809;51.864;5.646;2022-12-20T03:28:27;9.20;99.90
42141;DHT22;27809;51.864;5.646;2022-12-20T03:30:53;9.30;99.90
42141;DHT22;27809;51.864;5.646;2022-12-20T03:33:18;9.30;99.90
42141;DHT22;27809;51.864;5.646;2022-12-20T03:35:44;9.30;99.90
42141;DHT22;27809;51.864;5.646;2022-12-20T03:38:09;9.40;99.90
42141;DHT22;27809;51.864;5.646;2022-12-20T03:40:35;9.30;99.90
42141;DHT22;27809;51.864;5.646;2022-12-20T03:43:00;9.30;99.90
42141;DHT22;27809;51.864;5.646;2022-12-20T03:45:26;9.30;99.90
42141;DHT22;27809;51.864;5.646;2022-12-20T03:47:51;9.40;99.90
42141;DHT22;27809;51.864;5.646;2022-12-20T03:50:17;9.40;99.90
42141;DHT22;27809;51.864;5.646;2022-12-20T03:52:42;9.50;99.90
42141;DHT22;27809;51.864;5.646;2022-12-20T03:55:08;9.50;99.90
42141;DHT22;27809;51.864;5.646;2022-12-20T03:57:34;9.40;99.90
42141;DHT22;27809;51.864;5.646;2022-12-20T04:00:00;9.70;99.90
42141;DHT22;27809;51.864;5.646;2022-12-20T04:02:25;9.70;99.90
42141;DHT22;27809;51.864;5.646;2022-12-20T04:04:51;9.80;99.90
42141;DHT22;27809;51.864;5.646;2022-12-20T04:07:17;9.90;99.90
42141;DHT22;27809;51.864;5.646;2022-12-20T04:09:42;9.90;99.90
42141;DHT22;27809;51.864;5.646;2022-12-20T04:12:08;10.10;99.90
42141;DHT22;27809;51.864;5.646;2022-12-20T04:14:33;10.10;99.90
42141;DHT22;27809;51.864;5.646;2022-12-20T04:17:00;10.10;99.90
42141;DHT22;27809;51.864;5.646;2022-12-20T04:19:25;10.10;99.90
42141;DHT22;27809;51.864;5.646;2022-12-20T04:21:51;10.20;99.90
42141;DHT22;27809;51.864;5.646;2022-12-20T04:24:16;10.20;99.90
42141;DHT22;27809;51.864;5.646;2022-12-20T04:26:42;10.30;99.90
42141;DHT22;27809;51.864;5.646;2022-12-20T04:29:07;10.20;99.90
42141;DHT22;27809;51.864;5.646;2022-12-20T04:31:33;10.30;99.90
42141;DHT22;27809;51.864;5.646;2022-12-20T04:33:58;10.40;99.90
42141;DHT22;27809;51.864;5.646;2022-12-20T04:36:24;10.60;99.90
42141;DHT22;27809;51.864;5.646;2022-12-20T04:38:50;10.50;99.90
42141;DHT22;27809;51.864;5.646;2022-12-20T04:41:16;10.50;99.90
42141;DHT22;27809;51.864;5.646;2022-12-20T04:43:49;10.40;99.90
42141;DHT22;27809;51.864;5.646;2022-12-20T04:46:15;10.40;99.90
42141;DHT22;27809;51.864;5.646;2022-12-20T04:48:41;10.50;99.90
42141;DHT22;27809;51.864;5.646;2022-12-20T04:51:06;10.40;99.90
42141;DHT22;27809;51.864;5.646;2022-12-20T04:53:32;10.40;99.90
42141;DHT22;27809;51.864;5.646;2022-12-20T04:58:39;10.50;99.90
42141;DHT22;27809;51.864;5.646;2022-12-20T05:01:05;10.60;99.90
42141;DHT22;27809;51.864;5.646;2022-12-20T05:03:30;10.60;99.90
42141;DHT22;27809;51.864;5.646;2022-12-20T05:05:56;10.40;99.90
42141;DHT22;27809;51.864;5.646;2022-12-20T05:08:22;10.50;99.90
42141;DHT22;27809;51.864;5.646;2022-12-20T05:10:48;10.30;99.90
42141;DHT22;27809;51.864;5.646;2022-12-20T05:13:13;10.20;99.90
42141;DHT22;27809;51.864;5.646;2022-12-20T05:15:39;10.10;99.90
42141;DHT22;27809;51.864;5.646;2022-12-20T05:18:05;10.10;99.90
42141;DHT22;27809;51.864;5.646;2022-12-20T05:20:31;10.00;99.90
42141;DHT22;27809;51.864;5.646;2022-12-20T05:22:57;10.10;99.90
42141;DHT22;27809;51.864;5.646;2022-12-20T05:25:44;10.20;99.90
42141;DHT22;27809;51.864;5.646;2022-12-20T05:28:29;10.20;99.90
42141;DHT22;27809;51.864;5.646;2022-12-20T05:30:55;10.30;99.90
42141;DHT22;27809;51.864;5.646;2022-12-20T05:33:20;10.20;99.90
42141;DHT22;27809;51.864;5.646;2022-12-20T05:35:46;10.10;99.90
42141;DHT22;27809;51.864;5.646;2022-12-20T05:38:11;10.10;99.90
42141;DHT22;27809;51.864;5.646;2022-12-20T05:40:38;10.10;99.90
42141;DHT22;27809;51.864;5.646;2022-12-20T05:43:04;10.00;99.90
42141;DHT22;27809;51.864;5.646;2022-12-20T05:45:30;10.00;99.90
42141;DHT22;27809;51.864;5.646;2022-12-20T05:47:56;10.00;99.90
42141;DHT22;27809;51.864;5.646;2022-12-20T05:50:22;10.00;99.90
42141;DHT22;27809;51.864;5.646;2022-12-20T05:52:47;10.10;99.90
42141;DHT22;27809;51.864;5.646;2022-12-20T05:55:13;10.20;99.90
42141;DHT22;27809;51.864;5.646;2022-12-20T05:57:38;10.30;99.90
42141;DHT22;27809;51.864;5.646;2022-12-20T06:00:04;10.40;99.90
42141;DHT22;27809;51.864;5.646;2022-12-20T06:02:30;10.30;99.90
42141;DHT22;27809;51.864;5.646;2022-12-20T06:04:56;10.40;99.90
42141;DHT22;27809;51.864;5.646;2022-12-20T06:07:23;10.30;99.90
42141;DHT22;27809;51.864;5.646;2022-12-20T06:09:49;10.30;99.90
42141;DHT22;27809;51.864;5.646;2022-12-20T06:12:14;10.40;99.90
42141;DHT22;27809;51.864;5.646;2022-12-20T06:14:40;10.50;99.90
42141;DHT22;27809;51.864;5.646;2022-12-20T06:17:05;10.40;99.90
42141;DHT22;27809;51.864;5.646;2022-12-20T06:19:31;10.30;99.90
42141;DHT22;27809;51.864;5.646;2022-12-20T06:21:57;10.40;99.90
42141;DHT22;27809;51.864;5.646;2022-12-20T06:24:22;10.40;99.90
42141;DHT22;27809;51.864;5.646;2022-12-20T06:26:52;10.40;99.90
42141;DHT22;27809;51.864;5.646;2022-12-20T06:29:18;10.30;99.90
42141;DHT22;27809;51.864;5.646;2022-12-20T06:31:45;10.50;99.90
42141;DHT22;27809;51.864;5.646;2022-12-20T06:34:12;10.50;99.90
42141;DHT22;27809;51.864;5.646;2022-12-20T06:36:37;10.40;99.90
42141;DHT22;27809;51.864;5.646;2022-12-20T06:39:03;10.30;99.90
42141;DHT22;27809;51.864;5.646;2022-12-20T06:41:29;10.30;99.90
42141;DHT22;27809;51.864;5.646;2022-12-20T06:43:54;10.50;99.90
42141;DHT22;27809;51.864;5.646;2022-12-20T06:46:20;10.40;99.90
42141;DHT22;27809;51.864;5.646;2022-12-20T06:48:45;10.50;99.90
42141;DHT22;27809;51.864;5.646;2022-12-20T06:51:11;10.40;99.90
42141;DHT22;27809;51.864;5.646;2022-12-20T06:53:36;10.40;99.90
42141;DHT22;27809;51.864;5.646;2022-12-20T06:56:02;10.50;99.90
42141;DHT22;27809;51.864;5.646;2022-12-20T06:58:28;10.40;99.90
42141;DHT22;27809;51.864;5.646;2022-12-20T07:00:53;10.40;99.90
42141;DHT22;27809;51.864;5.646;2022-12-20T07:03:19;10.40;99.90
42141;DHT22;27809;51.864;5.646;2022-12-20T07:05:50;10.30;99.90
42141;DHT22;27809;51.864;5.646;2022-12-20T07:08:16;10.40;99.90
42141;DHT22;27809;51.864;5.646;2022-12-20T07:10:42;10.30;99.90
42141;DHT22;27809;51.864;5.646;2022-12-20T07:13:07;10.20;99.90
42141;DHT22;27809;51.864;5.646;2022-12-20T07:15:33;10.30;99.90
42141;DHT22;27809;51.864;5.646;2022-12-20T07:17:59;10.20;99.90
42141;DHT22;27809;51.864;5.646;2022-12-20T07:20:25;10.30;99.90
42141;DHT22;27809;51.864;5.646;2022-12-20T07:22:51;10.30;99.90
42141;DHT22;27809;51.864;5.646;2022-12-20T07:25:16;10.20;99.90
42141;DHT22;27809;51.864;5.646;2022-12-20T07:27:42;10.10;99.90
42141;DHT22;27809;51.864;5.646;2022-12-20T07:30:10;10.20;99.90
42141;DHT22;27809;51.864;5.646;2022-12-20T07:32:36;10.20;99.90
42141;DHT22;27809;51.864;5.646;2022-12-20T07:35:01;10.20;99.90
42141;DHT22;27809;51.864;5.646;2022-12-20T07:37:30;10.10;99.90
42141;DHT22;27809;51.864;5.646;2022-12-20T07:39:55;10.00;99.90
42141;DHT22;27809;51.864;5.646;2022-12-20T07:42:21;10.20;99.90
42141;DHT22;27809;51.864;5.646;2022-12-20T07:44:46;10.40;99.90
42141;DHT22;27809;51.864;5.646;2022-12-20T07:47:12;10.30;99.90
42141;DHT22;27809;51.864;5.646;2022-12-20T07:49:37;10.30;99.90
42141;DHT22;27809;51.864;5.646;2022-12-20T07:52:05;10.30;99.90
42141;DHT22;27809;51.864;5.646;2022-12-20T07:54:36;10.30;99.90
42141;DHT22;27809;51.864;5.646;2022-12-20T07:57:06;10.30;99.90
42141;DHT22;27809;51.864;5.646;2022-12-20T07:59:47;10.30;99.90
42141;DHT22;27809;51.864;5.646;2022-12-20T08:02:16;10.30;99.90
42141;DHT22;27809;51.864;5.646;2022-12-20T08:04:44;10.30;99.90
42141;DHT22;27809;51.864;5.646;2022-12-20T08:07:10;10.20;99.90
42141;DHT22;27809;51.864;5.646;2022-12-20T08:09:39;10.20;99.90
42141;DHT22;27809;51.864;5.646;2022-12-20T08:12:09;10.30;99.90
42141;DHT22;27809;51.864;5.646;2022-12-20T08:14:36;10.40;99.90
42141;DHT22;27809;51.864;5.646;2022-12-20T08:17:02;10.30;99.90
42141;DHT22;27809;51.864;5.646;2022-12-20T08:19:27;10.20;99.90
42141;DHT22;27809;51.864;5.646;2022-12-20T08:21:53;10.20;99.90
42141;DHT22;27809;51.864;5.646;2022-12-20T08:24:18;10.20;99.90
42141;DHT22;27809;51.864;5.646;2022-12-20T08:26:44;10.10;99.90
42141;DHT22;27809;51.864;5.646;2022-12-20T08:29:10;10.20;99.90
42141;DHT22;27809;51.864;5.646;2022-12-20T08:31:39;10.20;99.90
42141;DHT22;27809;51.864;5.646;2022-12-20T08:34:05;10.30;99.90
42141;DHT22;27809;51.864;5.646;2022-12-20T08:36:31;10.40;99.90
42141;DHT22;27809;51.864;5.646;2022-12-20T08:38:56;10.40;99.90
42141;DHT22;27809;51.864;5.646;2022-12-20T08:41:22;10.30;99.90
42141;DHT22;27809;51.864;5.646;2022-12-20T08:43:47;10.40;99.90
42141;DHT22;27809;51.864;5.646;2022-12-20T08:46:13;10.40;99.90
42141;DHT22;27809;51.864;5.646;2022-12-20T08:48:39;10.50;99.90
42141;DHT22;27809;51.864;5.646;2022-12-20T08:51:08;10.40;99.90
42141;DHT22;27809;51.864;5.646;2022-12-20T08:53:34;10.30;99.90
42141;DHT22;27809;51.864;5.646;2022-12-20T08:56:26;10.30;99.90
42141;DHT22;27809;51.864;5.646;2022-12-20T08:58:52;10.30;99.90
42141;DHT22;27809;51.864;5.646;2022-12-20T09:01:19;10.20;99.90
42141;DHT22;27809;51.864;5.646;2022-12-20T09:03:46;10.10;99.90
42141;DHT22;27809;51.864;5.646;2022-12-20T09:06:19;10.00;99.90
42141;DHT22;27809;51.864;5.646;2022-12-20T09:08:45;10.00;99.90
42141;DHT22;27809;51.864;5.646;2022-12-20T09:13:44;10.00;99.90
42141;DHT22;27809;51.864;5.646;2022-12-20T09:16:12;9.90;99.90
42141;DHT22;27809;51.864;5.646;2022-12-20T09:18:38;9.90;99.90
42141;DHT22;27809;51.864;5.646;2022-12-20T09:21:05;9.90;99.90
42141;DHT22;27809;51.864;5.646;2022-12-20T09:23:32;9.90;99.90
42141;DHT22;27809;51.864;5.646;2022-12-20T09:26:03;9.80;99.90
42141;DHT22;27809;51.864;5.646;2022-12-20T09:28:30;9.80;99.90
42141;DHT22;27809;51.864;5.646;2022-12-20T09:30:59;9.90;99.90
42141;DHT22;27809;51.864;5.646;2022-12-20T09:33:25;9.90;99.90
42141;DHT22;27809;51.864;5.646;2022-12-20T09:35:51;10.00;99.90
42141;DHT22;27809;51.864;5.646;2022-12-20T09:38:16;10.00;99.90
42141;DHT22;27809;51.864;5.646;2022-12-20T09:40:50;10.00;99.90
42141;DHT22;27809;51.864;5.646;2022-12-20T09:43:18;10.00;99.90
42141;DHT22;27809;51.864;5.646;2022-12-20T09:45:46;10.00;99.90
42141;DHT22;27809;51.864;5.646;2022-12-20T09:48:19;10.00;99.90
42141;DHT22;27809;51.864;5.646;2022-12-20T09:53:24;10.00;99.90
42141;DHT22;27809;51.864;5.646;2022-12-20T09:55:57;10.00;99.90
42141;DHT22;27809;51.864;5.646;2022-12-20T10:01:20;10.00;99.90
42141;DHT22;27809;51.864;5.646;2022-12-20T10:03:46;10.00;99.90
42141;DHT22;27809;51.864;5.646;2022-12-20T10:09:18;10.10;99.90
42141;DHT22;27809;51.864;5.646;2022-12-20T10:14:58;10.00;99.90
42141;DHT22;27809;51.864;5.646;2022-12-20T10:20:35;9.90;99.90
42141;DHT22;27809;51.864;5.646;2022-12-20T10:25:42;9.90;99.90
42141;DHT22;27809;51.864;5.646;2022-12-20T10:28:14;9.90;99.90
42141;DHT22;27809;51.864;5.646;2022-12-20T10:30:41;9.90;99.90
42141;DHT22;27809;51.864;5.646;2022-12-20T10:33:22;9.80;99.90
42141;DHT22;27809;51.864;5.646;2022-12-20T10:35:48;9.80;99.90
42141;DHT22;27809;51.864;5.646;2022-12-20T10:38:15;9.80;99.90
42141;DHT22;27809;51.864;5.646;2022-12-20T10:43:20;9.90;99.90
42141;DHT22;27809;51.864;5.646;2022-12-20T10:46:05;9.90;99.90
42141;DHT22;27809;51.864;5.646;2022-12-20T10:48:36;9.90;99.90
42141;DHT22;27809;51.864;5.646;2022-12-20T10:53:33;9.90;99.90
42141;DHT22;27809;51.864;5.646;2022-12-20T11:01:43;10.10;99.90
42141;DHT22;27809;51.864;5.646;2022-12-20T11:06:57;10.20;99.90
42141;DHT22;27809;51.864;5.646;2022-12-20T11:09:33;10.10;99.90
42141;DHT22;27809;51.864;5.646;2022-12-20T11:12:04;10.00;99.90
42141;DHT22;27809;51.864;5.646;2022-12-20T11:14:33;10.00;99.90
42141;DHT22;27809;51.864;5.646;2022-12-20T11:17:04;10.10;99.90
42141;DHT22;27809;51.864;5.646;2022-12-20T11:25:17;10.20;99.90
42141;DHT22;27809;51.864;5.646;2022-12-20T11:30:51;10.20;99.90
42141;DHT22;27809;51.864;5.646;2022-12-20T11:33:36;10.20;99.90
42141;DHT22;27809;51.864;5.646;2022-12-20T11:39:14;10.20;99.90
42141;DHT22;27809;51.864;5.646;2022-12-20T11:42:04;10.20;99.90
42141;DHT22;27809;51.864;5.646;2022-12-20T11:45:04;10.20;99.90
42141;DHT22;27809;51.864;5.646;2022-12-20T11:47:45;10.20;99.90
42141;DHT22;27809;51.864;5.646;2022-12-20T11:55:43;10.30;99.90
42141;DHT22;27809;51.864;5.646;2022-12-20T11:58:16;10.20;99.90
42141;DHT22;27809;51.864;5.646;2022-12-20T12:01:10;10.30;99.90
42141;DHT22;27809;51.864;5.646;2022-12-20T12:03:43;10.30;99.90
42141;DHT22;27809;51.864;5.646;2022-12-20T12:06:30;10.30;99.90
42141;DHT22;27809;51.864;5.646;2022-12-20T12:11:33;10.30;99.90
42141;DHT22;27809;51.864;5.646;2022-12-20T12:14:00;10.30;99.90
42141;DHT22;27809;51.864;5.646;2022-12-20T12:16:34;10.30;99.90
42141;DHT22;27809;51.864;5.646;2022-12-20T12:19:01;10.30;99.90
42141;DHT22;27809;51.864;5.646;2022-12-20T12:21:49;10.30;99.90
42141;DHT22;27809;51.864;5.646;2022-12-20T12:24:28;10.30;99.90
42141;DHT22;27809;51.864;5.646;2022-12-20T12:26:58;10.30;99.90
42141;DHT22;27809;51.864;5.646;2022-12-20T12:29:24;10.30;99.90
42141;DHT22;27809;51.864;5.646;2022-12-20T12:31:54;10.20;99.90
42141;DHT22;27809;51.864;5.646;2022-12-20T12:34:38;10.30;99.90
42141;DHT22;27809;51.864;5.646;2022-12-20T12:47:56;10.30;99.90
42141;DHT22;27809;51.864;5.646;2022-12-20T12:50:32;10.30;99.90
42141;DHT22;27809;51.864;5.646;2022-12-20T12:53:11;10.30;99.90
42141;DHT22;27809;51.864;5.646;2022-12-20T12:55:41;10.30;99.90
42141;DHT22;27809;51.864;5.646;2022-12-20T12:58:30;10.30;99.90
42141;DHT22;27809;51.864;5.646;2022-12-20T13:01:02;10.30;99.90
42141;DHT22;27809;51.864;5.646;2022-12-20T13:11:42;10.20;99.90
42141;DHT22;27809;51.864;5.646;2022-12-20T13:19:36;10.20;99.90
42141;DHT22;27809;51.864;5.646;2022-12-20T13:27:26;10.20;99.90
42141;DHT22;27809;51.864;5.646;2022-12-20T13:48:55;10.20;99.90
42141;DHT22;27809;51.864;5.646;2022-12-20T13:51:26;10.20;99.90
42141;DHT22;27809;51.864;5.646;2022-12-20T13:59:11;10.20;99.90
42141;DHT22;27809;51.864;5.646;2022-12-20T14:01:49;10.20;99.90
42141;DHT22;27809;51.864;5.646;2022-12-20T14:04:17;10.20;99.90
42141;DHT22;27809;51.864;5.646;2022-12-20T14:06:43;10.10;99.90
42141;DHT22;27809;51.864;5.646;2022-12-20T14:09:33;10.10;99.90
42141;DHT22;27809;51.864;5.646;2022-12-20T14:12:12;10.20;99.90
42141;DHT22;27809;51.864;5.646;2022-12-20T14:14:45;10.10;99.90
42141;DHT22;27809;51.864;5.646;2022-12-20T14:17:31;10.10;99.90
42141;DHT22;27809;51.864;5.646;2022-12-20T14:25:16;10.10;99.90
42141;DHT22;27809;51.864;5.646;2022-12-20T14:27:43;10.10;99.90
42141;DHT22;27809;51.864;5.646;2022-12-20T14:32:51;10.10;99.90
42141;DHT22;27809;51.864;5.646;2022-12-20T14:35:19;10.10;99.90
42141;DHT22;27809;51.864;5.646;2022-12-20T14:37:56;10.10;99.90
42141;DHT22;27809;51.864;5.646;2022-12-20T14:40:22;10.10;99.90
42141;DHT22;27809;51.864;5.646;2022-12-20T14:42:48;10.00;99.90
42141;DHT22;27809;51.864;5.646;2022-12-20T14:48:03;10.10;99.90
42141;DHT22;27809;51.864;5.646;2022-12-20T14:50:38;10.10;99.90
42141;DHT22;27809;51.864;5.646;2022-12-20T14:53:16;10.00;99.90
42141;DHT22;27809;51.864;5.646;2022-12-20T14:55:45;10.00;99.90
42141;DHT22;27809;51.864;5.646;2022-12-20T14:58:24;10.00;99.90
42141;DHT22;27809;51.864;5.646;2022-12-20T15:00:57;10.00;99.90
42141;DHT22;27809;51.864;5.646;2022-12-20T15:03:23;10.00;99.90
42141;DHT22;27809;51.864;5.646;2022-12-20T15:05:57;10.00;99.90
42141;DHT22;27809;51.864;5.646;2022-12-20T15:08:26;10.00;99.90
42141;DHT22;27809;51.864;5.646;2022-12-20T15:10:56;10.00;99.90
42141;DHT22;27809;51.864;5.646;2022-12-20T15:13:26;10.00;99.90
42141;DHT22;27809;51.864;5.646;2022-12-20T15:15:52;10.00;99.90
42141;DHT22;27809;51.864;5.646;2022-12-20T15:18:20;10.00;99.90
42141;DHT22;27809;51.864;5.646;2022-12-20T15:20:48;9.90;99.90
42141;DHT22;27809;51.864;5.646;2022-12-20T15:23:17;10.00;99.90
42141;DHT22;27809;51.864;5.646;2022-12-20T15:25:44;10.00;99.90
42141;DHT22;27809;51.864;5.646;2022-12-20T15:28:18;9.90;99.90
42141;DHT22;27809;51.864;5.646;2022-12-20T15:30:46;9.90;99.90
42141;DHT22;27809;51.864;5.646;2022-12-20T15:33:26;9.90;99.90
42141;DHT22;27809;51.864;5.646;2022-12-20T15:35:53;9.90;99.90
42141;DHT22;27809;51.864;5.646;2022-12-20T15:38:22;10.10;99.90
42141;DHT22;27809;51.864;5.646;2022-12-20T15:40:51;10.10;99.90
42141;DHT22;27809;51.864;5.646;2022-12-20T15:43:19;10.00;99.90
42141;DHT22;27809;51.864;5.646;2022-12-20T15:45:49;9.90;99.90
42141;DHT22;27809;51.864;5.646;2022-12-20T15:48:18;9.90;99.90
42141;DHT22;27809;51.864;5.646;2022-12-20T15:50:52;9.90;99.90
42141;DHT22;27809;51.864;5.646;2022-12-20T15:53:23;9.90;99.90
42141;DHT22;27809;51.864;5.646;2022-12-20T15:55:53;9.80;99.90
42141;DHT22;27809;51.864;5.646;2022-12-20T15:58:19;9.90;99.90
42141;DHT22;27809;51.864;5.646;2022-12-20T16:00:44;9.90;99.90
42141;DHT22;27809;51.864;5.646;2022-12-20T16:03:30;9.80;99.90
42141;DHT22;27809;51.864;5.646;2022-12-20T16:05:56;9.90;99.90
42141;DHT22;27809;51.864;5.646;2022-12-20T16:08:22;9.80;99.90
42141;DHT22;27809;51.864;5.646;2022-12-20T16:10:49;9.80;99.90
42141;DHT22;27809;51.864;5.646;2022-12-20T16:13:23;9.70;99.90
42141;DHT22;27809;51.864;5.646;2022-12-20T16:15:49;9.70;99.90
42141;DHT22;27809;51.864;5.646;2022-12-20T16:18:15;9.80;99.90
42141;DHT22;27809;51.864;5.646;2022-12-20T16:20:41;9.80;99.90
42141;DHT22;27809;51.864;5.646;2022-12-20T16:23:18;9.80;99.90
42141;DHT22;27809;51.864;5.646;2022-12-20T16:25:44;9.70;99.90
42141;DHT22;27809;51.864;5.646;2022-12-20T16:28:09;9.70;99.90
42141;DHT22;27809;51.864;5.646;2022-12-20T16:30:35;9.60;99.90
42141;DHT22;27809;51.864;5.646;2022-12-20T16:33:01;9.70;99.90
42141;DHT22;27809;51.864;5.646;2022-12-20T16:35:30;9.70;99.90
42141;DHT22;27809;51.864;5.646;2022-12-20T16:37:57;9.70;99.90
42141;DHT22;27809;51.864;5.646;2022-12-20T16:40:28;9.70;99.90
42141;DHT22;27809;51.864;5.646;2022-12-20T16:42:55;9.60;99.90
42141;DHT22;27809;51.864;5.646;2022-12-20T16:45:24;9.60;99.90
42141;DHT22;27809;51.864;5.646;2022-12-20T16:47:50;9.60;99.90
42141;DHT22;27809;51.864;5.646;2022-12-20T16:50:18;9.70;99.90
42141;DHT22;27809;51.864;5.646;2022-12-20T16:52:44;9.60;99.90
42141;DHT22;27809;51.864;5.646;2022-12-20T16:55:18;9.60;99.90
42141;DHT22;27809;51.864;5.646;2022-12-20T16:57:44;9.70;99.90
42141;DHT22;27809;51.864;5.646;2022-12-20T17:00:20;9.70;99.90
42141;DHT22;27809;51.864;5.646;2022-12-20T17:02:46;9.70;99.90
42141;DHT22;27809;51.864;5.646;2022-12-20T17:05:27;9.60;99.90
42141;DHT22;27809;51.864;5.646;2022-12-20T17:07:53;9.60;99.90
42141;DHT22;27809;51.864;5.646;2022-12-20T17:10:19;9.60;99.90
42141;DHT22;27809;51.864;5.646;2022-12-20T17:12:45;9.60;99.90
42141;DHT22;27809;51.864;5.646;2022-12-20T17:15:23;9.60;99.90
42141;DHT22;27809;51.864;5.646;2022-12-20T17:17:50;9.60;99.90
42141;DHT22;27809;51.864;5.646;2022-12-20T17:20:16;9.60;99.90
42141;DHT22;27809;51.864;5.646;2022-12-20T17:22:42;9.60;99.90
42141;DHT22;27809;51.864;5.646;2022-12-20T17:25:24;9.60;99.90
42141;DHT22;27809;51.864;5.646;2022-12-20T17:27:51;9.80;99.90
42141;DHT22;27809;51.864;5.646;2022-12-20T17:30:17;9.70;99.90
42141;DHT22;27809;51.864;5.646;2022-12-20T17:32:43;9.70;99.90
42141;DHT22;27809;51.864;5.646;2022-12-20T17:35:30;9.60;99.90
42141;DHT22;27809;51.864;5.646;2022-12-20T17:37:56;9.70;99.90
42141;DHT22;27809;51.864;5.646;2022-12-20T17:40:24;9.60;99.90
42141;DHT22;27809;51.864;5.646;2022-12-20T17:42:50;9.60;99.90
42141;DHT22;27809;51.864;5.646;2022-12-20T17:45:31;9.60;99.90
42141;DHT22;27809;51.864;5.646;2022-12-20T17:47:57;9.60;99.90
42141;DHT22;27809;51.864;5.646;2022-12-20T17:50:24;9.50;99.90
42141;DHT22;27809;51.864;5.646;2022-12-20T17:52:51;9.50;99.90
42141;DHT22;27809;51.864;5.646;2022-12-20T17:55:20;9.50;99.90
42141;DHT22;27809;51.864;5.646;2022-12-20T17:57:47;9.50;99.90
42141;DHT22;27809;51.864;5.646;2022-12-20T18:00:18;9.50;99.90
42141;DHT22;27809;51.864;5.646;2022-12-20T18:02:44;9.50;99.90
42141;DHT22;27809;51.864;5.646;2022-12-20T18:05:11;9.50;99.90
42141;DHT22;27809;51.864;5.646;2022-12-20T18:07:36;9.50;99.90